createdAt,value
2023-02-12T00:01:21.114Z,1.09
2023-02-12T00:03:47.958Z,1.23
2023-02-12T00:06:16.134Z,1.22
2023-02-12T00:08:43.639Z,1.20
2023-02-12T00:11:17.994Z,1.18
2023-02-12T00:13:45.051Z,1.31
2023-02-12T00:16:15.704Z,1.27
2023-02-12T00:18:43.281Z,1.38
2023-02-12T00:21:10.745Z,1.35
2023-02-12T00:23:39.349Z,1.30
2023-02-12T00:26:12.074Z,1.36
2023-02-12T00:28:39.026Z,1.19
2023-02-12T00:31:16.243Z,1.31
2023-02-12T00:33:43.285Z,1.44
2023-02-12T00:36:20.326Z,1.38
2023-02-12T00:38:47.639Z,1.47
2023-02-12T00:41:14.572Z,1.46
2023-02-12T00:43:41.882Z,1.44
2023-02-12T00:46:09.186Z,1.48
2023-02-12T00:48:36.876Z,1.43
2023-02-12T00:51:05.546Z,1.50
2023-02-12T00:53:33.045Z,1.44
2023-02-12T00:56:00.665Z,1.44
2023-02-12T00:58:28.137Z,1.52
2023-02-12T01:00:55.107Z,1.50
2023-02-12T01:03:22.387Z,1.64
2023-02-12T01:05:49.186Z,1.52
2023-02-12T01:08:17.217Z,1.54
2023-02-12T01:10:44.863Z,1.65
2023-02-12T01:13:15.792Z,1.63
2023-02-12T01:15:43.044Z,1.53
2023-02-12T01:18:10.159Z,1.64
2023-02-12T01:20:37.018Z,1.49
2023-02-12T01:23:06.993Z,1.64
2023-02-12T01:25:33.811Z,1.61
2023-02-12T01:28:00.569Z,1.72
2023-02-12T01:30:27.362Z,1.74
2023-02-12T01:32:55.644Z,1.63
2023-02-12T01:35:22.470Z,1.66
2023-02-12T01:37:49.205Z,1.63
2023-02-12T01:40:18.674Z,1.65
2023-02-12T01:42:45.426Z,1.66
2023-02-12T01:45:14.674Z,1.70
2023-02-12T01:47:45.193Z,1.79
2023-02-12T01:50:18.080Z,1.69
2023-02-12T01:52:48.950Z,1.66
2023-02-12T01:55:16.073Z,1.70
2023-02-12T01:57:46.091Z,1.82
2023-02-12T02:00:21.424Z,1.78
2023-02-12T02:02:58.663Z,1.83
2023-02-12T02:05:41.408Z,1.81
2023-02-12T02:08:09.335Z,1.83
2023-02-12T02:10:36.117Z,1.87
2023-02-12T02:13:22.192Z,1.93
2023-02-12T02:15:56.414Z,1.84
2023-02-12T02:18:35.595Z,1.89
2023-02-12T02:21:42.792Z,1.92
2023-02-12T02:24:38.278Z,1.99
2023-02-12T02:27:17.339Z,1.99
2023-02-12T02:30:24.792Z,2.03
2023-02-12T02:33:10.472Z,2.08
2023-02-12T02:36:54.101Z,2.01
2023-02-12T02:39:38.810Z,2.00
2023-02-12T02:42:17.664Z,1.99
2023-02-12T02:44:54.374Z,1.96
2023-02-12T02:47:45.107Z,1.95
2023-02-12T02:50:23.110Z,1.99
2023-02-12T02:53:03.873Z,1.96
2023-02-12T02:55:40.454Z,1.98
2023-02-12T02:58:15.433Z,2.04
2023-02-12T03:01:31.617Z,2.01
2023-02-12T03:04:06.885Z,1.96
2023-02-12T03:06:45.867Z,1.89
2023-02-12T03:09:23.874Z,2.00
2023-02-12T03:11:51.791Z,1.98
2023-02-12T03:14:25.808Z,1.99
2023-02-12T03:17:01.040Z,1.99
2023-02-12T03:19:34.682Z,2.06
2023-02-12T03:22:26.768Z,2.03
2023-02-12T03:25:31.359Z,2.05
2023-02-12T03:28:11.793Z,1.98
2023-02-12T03:31:21.932Z,2.02
2023-02-12T03:34:28.634Z,2.06
2023-02-12T03:37:29.910Z,2.03
2023-02-12T03:39:59.416Z,1.93
2023-02-12T03:42:41.587Z,1.98
2023-02-12T03:45:49.382Z,2.06
2023-02-12T03:48:32.078Z,2.06
2023-02-12T03:51:05.818Z,2.03
2023-02-12T03:53:32.846Z,2.00
2023-02-12T03:56:27.524Z,2.05
2023-02-12T03:58:54.260Z,1.97
2023-02-12T04:01:21.320Z,2.03
2023-02-12T04:03:48.682Z,2.04
2023-02-12T04:06:27.540Z,2.06
2023-02-12T04:08:57.929Z,2.01
2023-02-12T04:11:45.803Z,2.05
2023-02-12T04:14:42.318Z,2.10
2023-02-12T04:17:21.458Z,2.09
2023-02-12T04:20:27.843Z,2.06
2023-02-12T04:23:50.224Z,2.08
2023-02-12T04:26:33.661Z,2.10
2023-02-12T04:29:22.933Z,2.14
2023-02-12T04:32:19.677Z,2.12
2023-02-12T04:35:03.215Z,2.07
2023-02-12T04:37:45.545Z,1.99
2023-02-12T04:40:16.201Z,2.10
2023-02-12T04:42:49.079Z,2.06
2023-02-12T04:45:22.076Z,2.15
2023-02-12T04:47:48.840Z,2.12
2023-02-12T04:50:15.814Z,1.99
2023-02-12T04:52:42.581Z,2.16
2023-02-12T04:55:09.552Z,2.19
2023-02-12T04:57:36.523Z,2.24
2023-02-12T05:00:08.466Z,2.18
2023-02-12T05:02:35.475Z,2.03
2023-02-12T05:05:02.375Z,2.01
2023-02-12T05:07:29.179Z,2.06
2023-02-12T05:09:56.123Z,2.05
2023-02-12T05:12:22.920Z,2.08
2023-02-12T05:14:49.633Z,2.03
2023-02-12T05:17:16.411Z,2.13
2023-02-12T05:19:43.169Z,2.14
2023-02-12T05:22:09.926Z,2.05
2023-02-12T05:24:37.508Z,2.13
2023-02-12T05:27:04.226Z,2.26
2023-02-12T05:29:30.966Z,2.10
2023-02-12T05:31:57.850Z,2.22
2023-02-12T05:34:24.668Z,2.19
2023-02-12T05:36:51.443Z,2.16
2023-02-12T05:39:18.322Z,2.17
2023-02-12T05:41:45.048Z,2.21
2023-02-12T05:44:12.195Z,2.03
2023-02-12T05:46:39.578Z,2.23
2023-02-12T05:49:06.407Z,2.18
2023-02-12T05:51:33.379Z,2.14
2023-02-12T05:54:03.917Z,2.14
2023-02-12T05:56:39.447Z,2.24
2023-02-12T05:59:12.834Z,2.21
2023-02-12T06:01:42.622Z,2.27
2023-02-12T06:04:17.200Z,2.28
2023-02-12T06:06:44.769Z,2.28
2023-02-12T06:09:13.520Z,2.29
2023-02-12T06:11:40.501Z,2.20
2023-02-12T06:14:11.466Z,2.08
2023-02-12T06:16:38.411Z,2.18
2023-02-12T06:19:06.592Z,2.26
2023-02-12T06:21:34.051Z,2.12
2023-02-12T06:24:01.289Z,2.10
2023-02-12T06:26:28.290Z,2.21
2023-02-12T06:28:55.439Z,2.24
2023-02-12T06:31:32.548Z,2.33
2023-02-12T06:34:06.480Z,2.27
2023-02-12T06:36:34.235Z,2.24
2023-02-12T06:39:03.071Z,2.22
2023-02-12T06:41:29.912Z,2.24
2023-02-12T06:43:56.671Z,2.15
2023-02-12T06:46:23.934Z,2.31
2023-02-12T06:48:56.956Z,2.25
2023-02-12T06:51:24.726Z,2.35
2023-02-12T06:53:53.964Z,2.27
2023-02-12T06:56:22.896Z,2.40
2023-02-12T06:58:56.653Z,2.25
2023-02-12T07:01:28.031Z,2.44
2023-02-12T07:03:58.141Z,2.44
2023-02-12T07:06:26.749Z,2.48
2023-02-12T07:08:55.796Z,2.40
2023-02-12T07:11:29.048Z,2.51
2023-02-12T07:13:55.944Z,2.50
2023-02-12T07:16:23.234Z,2.58
2023-02-12T07:18:50.216Z,2.54
2023-02-12T07:21:18.446Z,2.67
2023-02-12T07:23:53.912Z,2.68
2023-02-12T07:26:22.351Z,2.59
2023-02-12T07:28:50.760Z,2.82
2023-02-12T07:31:21.882Z,2.82
2023-02-12T07:33:49.320Z,2.78
2023-02-12T07:36:19.104Z,2.99
2023-02-12T07:38:46.335Z,3.02
2023-02-12T07:41:23.638Z,3.07
2023-02-12T07:43:56.439Z,3.09
2023-02-12T07:46:36.936Z,3.16
2023-02-12T07:49:06.407Z,3.21
2023-02-12T07:51:35.139Z,3.14
2023-02-12T07:54:02.833Z,3.41
2023-02-12T07:56:35.312Z,3.39
2023-02-12T07:59:08.794Z,3.51
2023-02-12T08:01:51.293Z,3.61
2023-02-12T08:04:22.474Z,3.64
2023-02-12T08:06:51.961Z,3.78
2023-02-12T08:09:24.938Z,3.79
2023-02-12T08:11:52.274Z,3.81
2023-02-12T08:14:21.355Z,3.88
2023-02-12T08:16:50.092Z,3.97
2023-02-12T08:19:21.121Z,4.02
2023-02-12T08:21:53.367Z,3.98
2023-02-12T08:24:22.274Z,4.11
2023-02-12T08:26:49.438Z,4.12
2023-02-12T08:29:20.444Z,4.04
2023-02-12T08:31:50.026Z,4.08
2023-02-12T08:34:23.924Z,3.94
2023-02-12T08:36:54.160Z,4.18
2023-02-12T08:39:22.476Z,4.25
2023-02-12T08:41:50.185Z,4.29
2023-02-12T08:44:17.408Z,4.27
2023-02-12T08:46:47.463Z,4.33
2023-02-12T08:49:24.377Z,4.38
2023-02-12T08:51:54.382Z,4.28
2023-02-12T08:54:30.750Z,4.41
2023-02-12T08:57:00.339Z,4.48
2023-02-12T08:59:27.433Z,4.52
2023-02-12T09:01:55.208Z,4.60
2023-02-12T09:04:28.408Z,4.64
2023-02-12T09:06:56.201Z,4.64
2023-02-12T09:09:23.554Z,4.67
2023-02-12T09:11:50.441Z,4.75
2023-02-12T09:14:23.771Z,4.76
2023-02-12T09:16:53.250Z,4.83
2023-02-12T09:19:20.125Z,4.85
2023-02-12T09:21:56.011Z,4.91
2023-02-12T09:24:28.280Z,4.91
2023-02-12T09:26:55.545Z,4.91
2023-02-12T09:29:22.516Z,5.01
2023-02-12T09:31:49.429Z,4.83
2023-02-12T09:34:16.282Z,4.71
2023-02-12T09:36:42.995Z,4.75
2023-02-12T09:39:09.742Z,4.77
2023-02-12T09:42:08.854Z,4.94
2023-02-12T09:44:41.712Z,5.11
2023-02-12T09:47:20.517Z,5.06
2023-02-12T09:50:15.542Z,4.94
2023-02-12T09:52:42.449Z,4.92
2023-02-12T09:55:15.851Z,4.77
2023-02-12T09:57:43.406Z,4.62
2023-02-12T10:00:31.291Z,4.62
2023-02-12T10:03:05.453Z,4.62
2023-02-12T10:05:38.399Z,4.62
2023-02-12T10:08:11.034Z,4.53
2023-02-12T10:14:47.142Z,4.42
2023-02-12T10:17:55.928Z,4.64
2023-02-12T10:20:59.036Z,4.72
2023-02-12T10:24:03.875Z,4.89
2023-02-12T10:26:38.923Z,5.06
2023-02-12T10:29:22.344Z,5.08
2023-02-12T10:31:54.517Z,5.07
2023-02-12T10:34:26.203Z,5.23
2023-02-12T10:37:17.759Z,5.26
2023-02-12T10:39:54.733Z,5.18
2023-02-12T10:42:43.880Z,5.03
2023-02-12T10:45:26.796Z,4.97
2023-02-12T10:48:09.348Z,5.06
2023-02-12T10:51:06.990Z,5.15
2023-02-12T10:53:42.963Z,5.25
2023-02-12T10:56:17.394Z,5.41
2023-02-12T10:58:49.738Z,5.53
2023-02-12T11:01:39.194Z,5.46
2023-02-12T11:04:32.533Z,5.37
2023-02-12T11:07:06.938Z,5.24
2023-02-12T11:09:45.426Z,5.37
2023-02-12T11:12:35.961Z,5.31
2023-02-12T11:15:18.445Z,5.29
2023-02-12T11:18:04.439Z,5.40
2023-02-12T11:20:50.354Z,5.42
2023-02-12T11:23:42.443Z,5.46
2023-02-12T11:26:18.000Z,5.63
2023-02-12T11:29:24.622Z,5.46
2023-02-12T11:32:10.119Z,5.45
2023-02-12T11:34:37.313Z,5.58
2023-02-12T11:37:05.272Z,5.70
2023-02-12T11:39:39.108Z,5.75
2023-02-12T11:42:18.921Z,6.06
2023-02-12T11:44:55.890Z,6.08
2023-02-12T11:47:35.577Z,6.16
2023-02-12T11:50:27.600Z,6.41
2023-02-12T11:53:00.472Z,6.33
2023-02-12T11:55:33.155Z,6.53
2023-02-12T11:58:25.580Z,6.60
2023-02-12T12:01:06.381Z,6.72
2023-02-12T12:03:41.192Z,6.86
2023-02-12T12:06:14.790Z,6.90
2023-02-12T12:09:10.068Z,6.85
2023-02-12T12:11:57.498Z,6.90
2023-02-12T12:14:30.515Z,6.82
2023-02-12T12:17:22.953Z,7.07
2023-02-12T12:20:05.119Z,7.16
2023-02-12T12:22:54.754Z,7.40
2023-02-12T12:25:35.398Z,7.51
2023-02-12T12:28:50.086Z,7.57
2023-02-12T12:31:38.121Z,7.47
2023-02-12T12:34:20.199Z,7.63
2023-02-12T12:37:26.100Z,7.99
2023-02-12T12:40:14.783Z,8.28
2023-02-12T12:43:00.358Z,8.44
2023-02-12T12:45:47.975Z,8.59
2023-02-12T12:48:32.833Z,8.71
2023-02-12T12:51:30.813Z,8.56
2023-02-12T12:54:39.525Z,8.52
2023-02-12T12:57:17.043Z,8.39
2023-02-12T13:00:35.418Z,8.40
2023-02-12T13:03:06.774Z,8.51
2023-02-12T13:06:11.949Z,8.72
2023-02-12T13:09:09.161Z,8.71
2023-02-12T13:12:23.644Z,8.93
2023-02-12T13:15:58.635Z,8.88
2023-02-12T13:18:43.259Z,9.06
2023-02-12T13:21:24.430Z,9.30
2023-02-12T13:24:21.972Z,9.49
2023-02-12T13:27:02.741Z,9.42
2023-02-12T13:29:42.151Z,9.29
2023-02-12T13:32:29.971Z,9.46
2023-02-12T13:34:58.135Z,9.55
2023-02-12T13:37:49.024Z,9.38
2023-02-12T13:40:20.171Z,9.35
2023-02-12T13:43:13.137Z,9.55
2023-02-12T13:46:08.469Z,9.66
2023-02-12T13:49:21.731Z,9.70
2023-02-12T13:52:28.117Z,9.99
2023-02-12T13:55:26.797Z,10.21
2023-02-12T13:58:34.951Z,10.30
2023-02-12T14:01:01.735Z,10.42
2023-02-12T14:03:31.501Z,10.58
2023-02-12T14:06:21.559Z,10.72
2023-02-12T14:09:07.522Z,10.74
2023-02-12T14:11:34.650Z,10.63
2023-02-12T14:14:06.593Z,10.64
2023-02-12T14:16:33.256Z,10.75
2023-02-12T14:19:37.913Z,10.83
2023-02-12T14:22:26.409Z,10.62
2023-02-12T14:24:55.324Z,10.57
2023-02-12T14:27:42.020Z,10.67
2023-02-12T14:30:12.007Z,10.66
2023-02-12T14:32:50.892Z,10.72
2023-02-12T14:35:29.068Z,10.20
2023-02-12T14:38:05.572Z,10.40
2023-02-12T14:40:35.335Z,10.53
2023-02-12T14:43:24.429Z,10.58
2023-02-12T14:45:51.220Z,10.52
2023-02-12T14:48:53.679Z,10.69
2023-02-12T14:51:45.198Z,10.33
2023-02-12T14:54:22.042Z,10.31
2023-02-12T14:56:50.928Z,10.24
2023-02-12T14:59:24.697Z,10.80
2023-02-12T15:01:52.730Z,10.88
2023-02-12T15:04:33.404Z,10.81
2023-02-12T15:07:17.220Z,10.52
2023-02-12T15:09:53.141Z,10.37
2023-02-12T15:12:32.988Z,10.12
2023-02-12T15:15:15.942Z,10.05
2023-02-12T15:17:58.514Z,9.85
2023-02-12T15:20:35.507Z,9.97
2023-02-12T15:23:03.216Z,9.80
2023-02-12T15:25:32.510Z,9.95
2023-02-12T15:28:17.002Z,9.91
2023-02-12T15:30:43.996Z,9.96
2023-02-12T15:33:35.736Z,10.24
2023-02-12T15:36:04.616Z,10.21
2023-02-12T15:38:37.934Z,10.10
2023-02-12T15:41:06.770Z,9.83
2023-02-12T15:43:40.057Z,10.07
2023-02-12T15:46:17.108Z,10.02
2023-02-12T15:48:45.119Z,9.70
2023-02-12T15:51:20.615Z,9.67
2023-02-12T15:53:47.993Z,9.75
2023-02-12T15:56:26.217Z,9.62
2023-02-12T15:58:58.561Z,9.45
2023-02-12T16:01:32.478Z,9.02
2023-02-12T16:04:07.341Z,8.76
2023-02-12T16:06:39.326Z,8.68
2023-02-12T16:09:19.835Z,8.32
2023-02-12T16:11:48.206Z,8.28
2023-02-12T16:14:35.028Z,8.22
2023-02-12T16:17:01.894Z,7.64
2023-02-12T16:19:37.308Z,7.56
2023-02-12T16:22:16.874Z,7.56
2023-02-12T16:24:52.961Z,7.50
2023-02-12T16:27:32.240Z,7.48
2023-02-12T16:30:38.917Z,7.27
2023-02-12T16:33:32.548Z,7.10
2023-02-12T16:36:13.827Z,6.99
2023-02-12T16:38:52.588Z,6.81
2023-02-12T16:41:19.934Z,6.70
2023-02-12T16:44:16.812Z,6.66
2023-02-12T16:46:54.961Z,6.51
2023-02-12T16:49:25.022Z,6.41
2023-02-12T16:51:52.859Z,6.32
2023-02-12T16:54:35.112Z,5.95
2023-02-12T16:57:02.492Z,5.84
2023-02-12T16:59:30.019Z,5.69
2023-02-12T17:02:11.489Z,5.59
2023-02-12T17:04:38.395Z,5.49
2023-02-12T17:07:18.345Z,5.48
2023-02-12T17:09:45.103Z,5.49
2023-02-12T17:12:11.904Z,5.45
2023-02-12T17:14:38.658Z,5.17
2023-02-12T17:17:05.525Z,5.09
2023-02-12T17:19:32.293Z,5.09
2023-02-12T17:21:59.191Z,5.03
2023-02-12T17:24:30.304Z,4.97
2023-02-12T17:26:57.725Z,4.92
2023-02-12T17:29:25.539Z,4.86
2023-02-12T17:31:56.344Z,4.92
2023-02-12T17:34:23.870Z,4.94
2023-02-12T17:36:50.940Z,4.96
2023-02-12T17:39:20.913Z,4.95
2023-02-12T17:41:48.259Z,4.81
2023-02-12T17:44:15.715Z,4.76
2023-02-12T17:46:43.225Z,4.78
2023-02-12T17:49:10.364Z,4.71
2023-02-12T17:51:37.852Z,4.68
2023-02-12T17:54:05.376Z,4.57
2023-02-12T17:56:32.519Z,4.43
2023-02-12T17:58:59.988Z,4.63
2023-02-12T18:01:27.249Z,4.50
2023-02-12T18:03:55.952Z,4.51
2023-02-12T18:06:26.852Z,4.53
2023-02-12T18:08:54.029Z,4.40
2023-02-12T18:11:21.347Z,4.39
2023-02-12T18:13:52.350Z,4.44
2023-02-12T18:16:19.644Z,4.43
2023-02-12T18:18:46.428Z,4.29
2023-02-12T18:21:15.904Z,4.40
2023-02-12T18:23:43.702Z,4.41
2023-02-12T18:26:14.565Z,4.42
2023-02-12T18:28:41.470Z,4.22
2023-02-12T18:31:09.414Z,4.23
2023-02-12T18:33:37.648Z,4.26
2023-02-12T18:36:11.887Z,4.14
2023-02-12T18:38:40.925Z,4.22
2023-02-12T18:41:15.283Z,4.23
2023-02-12T18:43:43.932Z,4.22
2023-02-12T18:46:14.928Z,4.17
2023-02-12T18:48:42.762Z,4.10
2023-02-12T18:51:14.590Z,4.12
2023-02-12T18:53:41.609Z,3.92
2023-02-12T18:56:11.170Z,4.10
2023-02-12T18:58:38.078Z,3.98
2023-02-12T19:01:20.431Z,4.05
2023-02-12T19:03:49.557Z,4.05
2023-02-12T19:06:16.581Z,3.80
2023-02-12T19:08:43.475Z,3.91
2023-02-12T19:11:12.641Z,3.88
2023-02-12T19:13:40.852Z,3.92
2023-02-12T19:16:15.878Z,3.80
2023-02-12T19:18:43.180Z,3.93
2023-02-12T19:21:13.397Z,3.85
2023-02-12T19:23:40.381Z,3.73
2023-02-12T19:26:10.422Z,3.87
2023-02-12T19:28:38.624Z,3.78
2023-02-12T19:31:36.793Z,3.74
2023-02-12T19:34:07.676Z,3.71
2023-02-12T19:36:37.150Z,3.64
2023-02-12T19:39:06.114Z,3.55
2023-02-12T19:41:40.917Z,3.64
2023-02-12T19:44:19.923Z,3.59
2023-02-12T19:46:48.697Z,3.44
2023-02-12T19:49:22.701Z,3.19
2023-02-12T19:51:49.956Z,3.33
2023-02-12T19:54:19.258Z,3.34
2023-02-12T19:56:46.435Z,3.35
2023-02-12T19:59:17.494Z,3.32
2023-02-12T20:01:45.398Z,3.33
2023-02-12T20:04:14.146Z,3.21
2023-02-12T20:06:41.868Z,3.11
2023-02-12T20:09:10.898Z,3.08
2023-02-12T20:11:38.649Z,3.03
2023-02-12T20:14:11.791Z,3.04
2023-02-12T20:16:41.736Z,2.91
2023-02-12T20:19:23.262Z,2.96
2023-02-12T20:21:54.373Z,2.93
2023-02-12T20:24:27.090Z,2.92
2023-02-12T20:26:54.810Z,2.79
2023-02-12T20:29:22.617Z,2.67
2023-02-12T20:31:49.917Z,2.61
2023-02-12T20:34:18.588Z,2.72
2023-02-12T20:36:47.157Z,2.65
2023-02-12T20:39:17.732Z,2.63
2023-02-12T20:41:44.523Z,2.51
2023-02-12T20:44:20.085Z,2.54
2023-02-12T20:46:50.106Z,2.49
2023-02-12T20:49:20.295Z,2.43
2023-02-12T20:51:50.361Z,2.30
2023-02-12T20:54:17.392Z,2.26
2023-02-12T20:56:44.289Z,2.08
2023-02-12T20:59:11.435Z,2.18
2023-02-12T21:01:41.280Z,2.19
2023-02-12T21:04:14.985Z,2.16
2023-02-12T21:06:42.399Z,2.12
2023-02-12T21:09:14.342Z,1.92
2023-02-12T21:11:45.315Z,2.07
2023-02-12T21:14:23.597Z,2.02
2023-02-12T21:16:53.748Z,1.88
2023-02-12T21:19:21.729Z,1.90
2023-02-12T21:21:48.579Z,1.89
2023-02-12T21:24:20.364Z,1.83
2023-02-12T21:26:47.679Z,1.70
2023-02-12T21:29:15.353Z,1.70
2023-02-12T21:31:47.582Z,1.65
2023-02-12T21:34:23.403Z,1.59
2023-02-12T21:36:53.683Z,1.52
2023-02-12T21:39:26.486Z,1.54
2023-02-12T21:41:56.535Z,1.44
2023-02-12T21:44:25.546Z,1.36
2023-02-12T21:46:53.090Z,1.43
2023-02-12T21:49:25.172Z,1.35
2023-02-12T21:51:58.757Z,1.39
2023-02-12T21:54:26.270Z,1.35
2023-02-12T21:56:53.304Z,1.28
2023-02-12T21:59:20.253Z,1.18
2023-02-12T22:01:53.045Z,1.30
2023-02-12T22:04:20.347Z,1.28
2023-02-12T22:06:50.309Z,1.19
2023-02-12T22:09:19.914Z,1.19
2023-02-12T22:11:46.979Z,1.03
2023-02-12T22:14:17.152Z,1.10
2023-02-12T22:16:44.873Z,0.91
2023-02-12T22:19:11.682Z,0.74
2023-02-12T22:21:41.193Z,1.05
2023-02-12T22:24:16.067Z,1.04
2023-02-12T22:26:44.340Z,0.72
2023-02-12T22:29:14.713Z,0.94
2023-02-12T22:31:44.146Z,0.88
2023-02-12T22:34:14.795Z,0.87
2023-02-12T22:36:42.985Z,0.76
2023-02-12T22:39:13.109Z,0.68
2023-02-12T22:41:41.996Z,0.69
2023-02-12T22:44:11.661Z,0.74
2023-02-12T22:46:38.610Z,0.68
2023-02-12T22:49:05.665Z,0.67
2023-02-12T22:51:34.599Z,0.49
2023-02-12T22:54:01.374Z,0.64
2023-02-12T22:56:28.438Z,0.73
2023-02-12T22:59:01.571Z,0.58
2023-02-12T23:01:29.793Z,0.50
2023-02-12T23:03:57.073Z,0.39
2023-02-12T23:06:27.745Z,0.48
2023-02-12T23:09:02.485Z,0.29
2023-02-12T23:11:32.507Z,0.34
2023-02-12T23:14:00.677Z,0.34
2023-02-12T23:16:27.783Z,0.43
2023-02-12T23:19:00.000Z,0.42
2023-02-12T23:21:29.650Z,0.41
2023-02-12T23:23:59.173Z,0.22
2023-02-12T23:26:27.802Z,0.38
2023-02-12T23:28:55.985Z,0.25
2023-02-12T23:31:23.626Z,0.32
2023-02-12T23:33:50.586Z,0.12
2023-02-12T23:36:17.409Z,0.25
2023-02-12T23:38:44.182Z,0.28
2023-02-12T23:41:11.015Z,0.29
2023-02-12T23:43:37.776Z,0.17
2023-02-12T23:46:04.765Z,0.26
2023-02-12T23:48:31.576Z,0.25
2023-02-12T23:50:58.599Z,0.19
2023-02-12T23:53:25.657Z,0.01
2023-02-12T23:55:52.381Z,0.04
2023-02-12T23:58:19.341Z,-0.15
